createdAt,value
2018-08-30T00:01:44.535Z,3.20
2018-08-30T00:04:13.357Z,3.30
2018-08-30T00:06:42.161Z,3.40
2018-08-30T00:09:11.031Z,3.40
2018-08-30T00:11:39.851Z,3.07
2018-08-30T00:14:09.228Z,3.27
2018-08-30T00:16:38.128Z,3.10
2018-08-30T00:19:07.386Z,3.20
2018-08-30T00:21:36.284Z,3.13
2018-08-30T00:24:05.488Z,3.20
2018-08-30T00:26:34.428Z,3.00
2018-08-30T00:29:03.216Z,3.23
2018-08-30T00:31:32.057Z,2.90
2018-08-30T00:34:01.287Z,2.70
2018-08-30T00:36:30.189Z,2.63
2018-08-30T00:38:58.997Z,2.40
2018-08-30T00:41:27.880Z,2.97
2018-08-30T00:43:57.054Z,3.17
2018-08-30T00:46:26.321Z,2.60
2018-08-30T00:48:55.249Z,2.60
2018-08-30T00:51:24.453Z,2.50
2018-08-30T00:53:53.766Z,2.50
2018-08-30T00:56:23.234Z,2.83
2018-08-30T00:58:52.513Z,3.13
2018-08-30T01:01:21.391Z,3.20
2018-08-30T01:03:50.244Z,3.13
2018-08-30T01:06:19.084Z,3.83
2018-08-30T01:08:48.087Z,4.03
2018-08-30T01:11:16.940Z,3.53
2018-08-30T01:13:45.750Z,4.23
2018-08-30T01:16:14.560Z,3.70
2018-08-30T01:18:44.588Z,3.53
2018-08-30T01:21:13.437Z,4.27
2018-08-30T01:23:42.337Z,5.43
2018-08-30T01:26:11.187Z,5.30
2018-08-30T01:28:40.437Z,5.57
2018-08-30T01:31:09.581Z,5.23
2018-08-30T01:33:38.402Z,4.80
2018-08-30T01:36:07.685Z,4.93
2018-08-30T01:38:36.628Z,4.63
2018-08-30T01:41:05.521Z,5.33
2018-08-30T01:43:34.321Z,4.60
2018-08-30T01:46:03.609Z,4.53
2018-08-30T01:48:32.912Z,4.37
2018-08-30T01:51:01.820Z,4.87
2018-08-30T01:53:30.629Z,4.27
2018-08-30T01:55:59.892Z,4.20
2018-08-30T01:58:29.177Z,4.07
2018-08-30T02:00:58.465Z,3.63
2018-08-30T02:03:27.452Z,3.47
2018-08-30T02:05:56.648Z,3.07
2018-08-30T02:08:25.544Z,3.60
2018-08-30T02:10:54.391Z,3.67
2018-08-30T02:13:23.192Z,3.47
2018-08-30T02:15:51.988Z,3.53
2018-08-30T02:18:20.829Z,3.33
2018-08-30T02:20:49.640Z,3.17
2018-08-30T02:23:18.456Z,3.40
2018-08-30T02:25:47.739Z,3.27
2018-08-30T02:28:16.611Z,2.90
2018-08-30T02:30:45.443Z,3.13
2018-08-30T02:33:14.718Z,2.70
2018-08-30T02:35:43.988Z,2.67
2018-08-30T02:38:12.864Z,2.50
2018-08-30T02:40:41.725Z,3.80
2018-08-30T02:43:10.826Z,3.13
2018-08-30T02:45:39.939Z,2.83
2018-08-30T02:48:08.759Z,2.50
2018-08-30T02:50:37.955Z,3.03
2018-08-30T02:53:06.871Z,2.43
2018-08-30T02:55:36.092Z,2.53
2018-08-30T02:58:05.377Z,2.67
2018-08-30T03:00:34.265Z,2.37
2018-08-30T03:03:03.132Z,2.77
2018-08-30T03:05:32.184Z,2.20
2018-08-30T03:08:01.370Z,2.40
2018-08-30T03:10:30.300Z,2.67
2018-08-30T03:12:59.105Z,2.37
2018-08-30T03:15:28.362Z,2.20
2018-08-30T03:17:57.280Z,2.53
2018-08-30T03:20:26.115Z,2.10
2018-08-30T03:22:55.330Z,2.20
2018-08-30T03:25:24.224Z,2.40
2018-08-30T03:27:53.056Z,2.20
2018-08-30T03:30:22.888Z,2.20
2018-08-30T03:32:51.657Z,2.07
2018-08-30T03:35:20.439Z,2.30
2018-08-30T03:37:49.604Z,2.60
2018-08-30T03:40:18.543Z,3.53
2018-08-30T03:42:47.745Z,2.63
2018-08-30T03:45:17.120Z,3.00
2018-08-30T03:47:46.428Z,2.43
2018-08-30T03:50:15.333Z,2.33
2018-08-30T03:52:44.120Z,2.47
2018-08-30T03:55:13.480Z,2.40
2018-08-30T03:57:42.709Z,2.30
2018-08-30T04:00:12.022Z,2.43
2018-08-30T04:02:41.304Z,2.77
2018-08-30T04:05:10.614Z,2.50
2018-08-30T04:07:39.934Z,1.93
2018-08-30T04:10:08.975Z,2.70
2018-08-30T04:12:37.805Z,2.57
2018-08-30T04:15:07.053Z,2.20
2018-08-30T04:17:35.997Z,2.47
2018-08-30T04:20:05.357Z,2.27
2018-08-30T04:22:34.234Z,2.43
2018-08-30T04:25:03.052Z,2.00
2018-08-30T04:27:32.237Z,2.33
2018-08-30T04:30:01.490Z,2.10
2018-08-30T04:32:30.435Z,2.20
2018-08-30T04:34:59.226Z,2.10
2018-08-30T04:37:28.026Z,1.83
2018-08-30T04:39:56.840Z,1.80
2018-08-30T04:42:26.023Z,2.00
2018-08-30T04:44:54.945Z,2.03
2018-08-30T04:47:23.777Z,1.50
2018-08-30T04:49:52.600Z,2.10
2018-08-30T04:52:21.403Z,1.70
2018-08-30T04:54:50.227Z,1.80
2018-08-30T04:57:19.488Z,2.03
2018-08-30T04:59:48.389Z,1.77
2018-08-30T05:02:17.589Z,2.53
2018-08-30T05:04:46.480Z,2.20
2018-08-30T05:07:15.665Z,2.50
2018-08-30T05:09:44.608Z,2.13
2018-08-30T05:12:13.800Z,2.17
2018-08-30T05:14:43.063Z,2.03
2018-08-30T05:17:11.984Z,2.43
2018-08-30T05:19:41.096Z,2.20
2018-08-30T05:22:10.296Z,2.07
2018-08-30T05:24:39.613Z,2.00
2018-08-30T05:27:08.515Z,2.23
2018-08-30T05:29:37.383Z,1.47
2018-08-30T05:32:06.227Z,2.00
2018-08-30T05:34:35.078Z,2.10
2018-08-30T05:37:04.325Z,1.83
2018-08-30T05:39:33.637Z,1.80
2018-08-30T05:42:02.540Z,1.93
2018-08-30T05:44:31.505Z,1.77
2018-08-30T05:52:46.760Z,1.73
2018-08-30T05:55:18.174Z,1.80
2018-08-30T05:57:47.420Z,2.07
2018-08-30T06:00:16.335Z,2.00
2018-08-30T06:02:45.134Z,1.57
2018-08-30T06:05:16.089Z,1.63
2018-08-30T06:07:44.969Z,2.20
2018-08-30T06:10:18.407Z,1.87
2018-08-30T06:12:47.260Z,1.77
2018-08-30T06:15:16.167Z,2.60
2018-08-30T06:21:05.376Z,1.90
2018-08-30T06:23:36.220Z,1.80
2018-08-30T06:26:05.650Z,2.00
2018-08-30T06:28:34.619Z,1.97
2018-08-30T06:31:03.507Z,1.70
2018-08-30T06:33:32.770Z,1.50
2018-08-30T06:36:07.620Z,1.50
2018-08-30T06:38:42.454Z,1.60
2018-08-30T06:41:32.816Z,1.73
2018-08-30T06:44:03.714Z,2.00
2018-08-30T06:46:33.016Z,2.70
2018-08-30T06:49:01.986Z,1.80
2018-08-30T06:51:30.764Z,1.77
2018-08-30T06:53:59.604Z,1.53
2018-08-30T06:56:28.959Z,2.43
2018-08-30T06:58:58.405Z,1.57
2018-08-30T07:01:27.327Z,1.60
2018-08-30T07:03:56.604Z,2.10
2018-08-30T07:06:25.888Z,1.83
2018-08-30T07:08:54.838Z,1.80
2018-08-30T07:11:24.101Z,1.60
2018-08-30T07:13:53.450Z,1.63
2018-08-30T07:16:22.765Z,2.10
2018-08-30T07:18:51.728Z,1.73
2018-08-30T07:21:20.564Z,1.47
2018-08-30T07:23:49.473Z,1.87
2018-08-30T07:26:18.307Z,2.20
2018-08-30T07:28:47.124Z,1.90
2018-08-30T07:31:16.317Z,1.67
2018-08-30T07:33:45.659Z,1.80
2018-08-30T07:36:14.612Z,1.87
2018-08-30T07:38:43.484Z,1.67
2018-08-30T07:41:12.388Z,1.67
2018-08-30T07:43:41.602Z,1.90
2018-08-30T07:46:10.964Z,1.90
2018-08-30T07:48:40.338Z,1.40
2018-08-30T07:51:13.867Z,1.77
2018-08-30T07:53:43.128Z,2.13
2018-08-30T07:56:12.425Z,2.20
2018-08-30T07:58:41.344Z,2.10
2018-08-30T08:01:10.233Z,2.23
2018-08-30T08:03:39.518Z,2.20
2018-08-30T08:06:08.515Z,2.37
2018-08-30T08:08:37.283Z,1.47
2018-08-30T08:11:06.500Z,2.13
2018-08-30T08:13:35.433Z,1.77
2018-08-30T08:16:04.653Z,1.70
2018-08-30T08:18:37.161Z,1.80
2018-08-30T08:21:06.031Z,2.00
2018-08-30T08:23:34.891Z,2.10
2018-08-30T08:26:03.776Z,2.10
2018-08-30T08:28:32.588Z,2.23
2018-08-30T08:31:01.400Z,1.77
2018-08-30T08:33:30.245Z,1.83
2018-08-30T08:35:59.509Z,1.97
2018-08-30T08:38:28.491Z,2.23
2018-08-30T08:40:57.476Z,2.37
2018-08-30T08:43:26.678Z,2.57
2018-08-30T08:45:55.696Z,2.20
2018-08-30T08:48:24.533Z,2.30
2018-08-30T08:50:53.775Z,2.00
2018-08-30T08:53:22.727Z,2.20
2018-08-30T08:55:52.076Z,2.40
2018-08-30T08:58:21.021Z,1.83
2018-08-30T09:00:51.667Z,2.37
2018-08-30T09:03:20.973Z,2.60
2018-08-30T09:05:50.260Z,1.97
2018-08-30T09:08:19.272Z,1.57
2018-08-30T09:10:48.106Z,2.37
2018-08-30T09:13:17.027Z,2.63
2018-08-30T09:15:45.866Z,2.33
2018-08-30T09:18:14.680Z,2.10
2018-08-30T09:20:43.586Z,2.63
2018-08-30T09:23:12.464Z,2.17
2018-08-30T09:26:04.472Z,2.23
2018-08-30T09:28:34.455Z,2.47
2018-08-30T09:31:03.410Z,2.70
2018-08-30T09:33:32.215Z,2.20
2018-08-30T09:36:00.994Z,2.23
2018-08-30T09:38:30.165Z,2.47
2018-08-30T09:40:59.120Z,2.40
2018-08-30T09:43:27.956Z,2.20
2018-08-30T09:45:56.803Z,1.90
2018-08-30T09:48:25.668Z,3.40
2018-08-30T09:50:54.922Z,2.70
2018-08-30T09:53:23.932Z,1.90
2018-08-30T09:55:53.209Z,2.83
2018-08-30T09:58:26.110Z,3.40
2018-08-30T10:01:02.360Z,3.53
2018-08-30T10:03:31.167Z,3.60
2018-08-30T10:06:00.020Z,3.73
2018-08-30T10:08:29.392Z,4.07
2018-08-30T10:10:58.304Z,5.07
2018-08-30T10:13:27.143Z,3.70
2018-08-30T10:15:56.001Z,4.67
2018-08-30T10:18:25.191Z,4.20
2018-08-30T10:20:54.474Z,3.43
2018-08-30T10:23:23.976Z,4.07
2018-08-30T10:25:53.287Z,3.70
2018-08-30T10:28:22.573Z,4.70
2018-08-30T10:30:51.675Z,4.00
2018-08-30T10:33:20.905Z,3.23
2018-08-30T10:35:49.768Z,4.10
2018-08-30T10:38:18.604Z,3.73
2018-08-30T10:40:47.441Z,3.60
2018-08-30T10:43:16.802Z,4.13
2018-08-30T10:45:46.167Z,4.60
2018-08-30T10:48:15.148Z,4.10
2018-08-30T10:50:44.433Z,5.13
2018-08-30T10:53:13.386Z,4.97
2018-08-30T10:55:42.257Z,4.70
2018-08-30T10:58:11.141Z,3.60
2018-08-30T11:00:40.592Z,4.33
2018-08-30T11:03:09.556Z,3.80
2018-08-30T11:05:38.439Z,4.90
2018-08-30T11:08:07.306Z,5.03
2018-08-30T11:10:36.222Z,5.90
2018-08-30T11:13:05.192Z,4.33
2018-08-30T11:15:34.036Z,4.40
2018-08-30T11:18:04.213Z,5.00
2018-08-30T11:20:33.030Z,6.93
2018-08-30T11:23:02.395Z,4.10
2018-08-30T11:25:31.339Z,3.63
2018-08-30T11:28:00.284Z,4.13
2018-08-30T11:30:29.607Z,3.70
2018-08-30T11:32:58.539Z,3.97
2018-08-30T11:35:27.416Z,4.13
2018-08-30T11:37:56.282Z,3.80
2018-08-30T11:40:25.559Z,3.47
2018-08-30T11:42:54.591Z,3.23
2018-08-30T11:45:23.392Z,3.33
2018-08-30T11:47:52.203Z,2.93
2018-08-30T11:50:22.736Z,2.70
2018-08-30T11:52:51.555Z,3.17
2018-08-30T11:55:20.791Z,2.93
2018-08-30T11:57:49.680Z,2.80
2018-08-30T12:00:18.501Z,2.77
2018-08-30T12:02:48.041Z,3.33
2018-08-30T12:05:17.041Z,3.30
2018-08-30T12:07:45.898Z,3.20
2018-08-30T12:10:15.324Z,3.13
2018-08-30T12:12:44.325Z,3.53
2018-08-30T12:15:13.532Z,3.17
2018-08-30T12:17:42.803Z,3.57
2018-08-30T12:20:11.782Z,3.50
2018-08-30T12:22:40.608Z,3.20
2018-08-30T12:25:09.424Z,3.40
2018-08-30T12:27:38.240Z,4.10
2018-08-30T12:30:07.554Z,4.17
2018-08-30T12:32:36.479Z,3.80
2018-08-30T12:35:05.969Z,4.20
2018-08-30T12:37:34.809Z,3.93
2018-08-30T12:40:03.822Z,4.37
2018-08-30T12:42:32.600Z,4.10
2018-08-30T12:45:01.468Z,4.07
2018-08-30T12:47:30.369Z,4.03
2018-08-30T12:49:59.252Z,4.20
2018-08-30T12:52:28.626Z,3.97
2018-08-30T12:54:57.504Z,4.60
2018-08-30T12:57:26.563Z,4.30
2018-08-30T12:59:55.503Z,4.17
2018-08-30T13:02:24.763Z,4.83
2018-08-30T13:04:53.742Z,6.60
2018-08-30T13:07:24.066Z,5.00
2018-08-30T13:09:53.451Z,5.33
2018-08-30T13:12:22.446Z,4.57
2018-08-30T13:14:51.228Z,4.77
2018-08-30T13:17:19.883Z,5.90
2018-08-30T13:19:48.803Z,5.23
2018-08-30T13:22:17.947Z,5.20
2018-08-30T13:24:46.741Z,5.40
2018-08-30T13:27:15.494Z,6.33
2018-08-30T13:29:44.595Z,4.70
2018-08-30T13:32:13.458Z,4.60
2018-08-30T13:34:42.299Z,5.17
2018-08-30T13:37:11.527Z,6.57
2018-08-30T13:39:40.553Z,5.93
2018-08-30T13:42:09.757Z,5.23
2018-08-30T13:44:38.414Z,6.00
2018-08-30T13:47:07.463Z,6.10
2018-08-30T13:49:36.383Z,6.23
2018-08-30T13:52:05.782Z,6.27
2018-08-30T13:54:34.812Z,5.60
2018-08-30T13:57:04.092Z,5.77
2018-08-30T13:59:33.176Z,5.17
2018-08-30T14:02:01.934Z,6.10
2018-08-30T14:04:30.625Z,6.10
2018-08-30T14:06:59.568Z,5.50
2018-08-30T14:09:28.407Z,6.33
2018-08-30T14:11:57.349Z,5.97
2018-08-30T14:14:26.183Z,5.80
2018-08-30T14:16:54.799Z,4.93
2018-08-30T14:19:23.741Z,5.27
2018-08-30T14:22:05.210Z,4.77
2018-08-30T14:30:21.002Z,5.57
2018-08-30T14:38:49.767Z,5.77
2018-08-30T14:44:27.786Z,4.73
2018-08-30T14:46:56.652Z,4.83
2018-08-30T14:49:26.745Z,5.33
2018-08-30T14:51:55.944Z,5.63
2018-08-30T14:54:24.680Z,5.43
2018-08-30T14:56:53.613Z,5.20
2018-08-30T14:59:22.526Z,5.33
2018-08-30T15:01:51.841Z,5.13
2018-08-30T15:04:20.797Z,5.23
2018-08-30T15:06:50.009Z,4.37
2018-08-30T15:09:19.220Z,5.53
2018-08-30T15:11:48.057Z,5.20
2018-08-30T15:14:16.974Z,5.67
2018-08-30T15:16:45.769Z,4.90
2018-08-30T15:19:14.616Z,5.60
2018-08-30T15:21:43.468Z,5.07
2018-08-30T15:24:12.353Z,5.57
2018-08-30T15:26:41.175Z,6.43
2018-08-30T15:29:10.112Z,5.57
2018-08-30T15:31:38.919Z,5.00
2018-08-30T15:34:07.706Z,4.87
2018-08-30T15:36:36.613Z,5.03
2018-08-30T15:39:07.895Z,5.93
2018-08-30T15:41:36.795Z,4.77
2018-08-30T15:44:07.924Z,4.50
2018-08-30T15:46:37.143Z,5.37
2018-08-30T15:49:06.488Z,5.50
2018-08-30T15:51:35.824Z,5.13
2018-08-30T15:54:04.884Z,5.50
2018-08-30T15:56:33.803Z,4.67
2018-08-30T15:59:03.137Z,5.97
2018-08-30T16:01:32.001Z,5.63
2018-08-30T16:04:00.811Z,5.50
2018-08-30T16:06:29.611Z,5.63
2018-08-30T16:08:58.452Z,5.23
2018-08-30T16:11:27.861Z,5.50
2018-08-30T16:13:57.837Z,5.10
2018-08-30T16:16:27.125Z,4.90
2018-08-30T16:18:56.068Z,4.57
2018-08-30T16:21:24.907Z,5.47
2018-08-30T16:23:53.747Z,5.10
2018-08-30T16:26:22.640Z,6.07
2018-08-30T16:28:51.842Z,5.90
2018-08-30T16:31:21.309Z,5.40
2018-08-30T16:33:50.146Z,5.33
2018-08-30T16:36:19.028Z,6.00
2018-08-30T16:38:47.891Z,5.20
2018-08-30T16:41:17.195Z,5.90
2018-08-30T16:43:46.512Z,5.40
2018-08-30T16:46:15.868Z,5.43
2018-08-30T16:48:45.216Z,5.00
2018-08-30T16:51:14.124Z,4.97
2018-08-30T16:53:42.959Z,4.43
2018-08-30T16:56:12.276Z,4.50
2018-08-30T16:58:41.352Z,4.90
2018-08-30T17:07:03.982Z,5.07
2018-08-30T17:09:32.867Z,4.33
2018-08-30T17:12:01.765Z,4.37
2018-08-30T17:14:30.668Z,4.87
2018-08-30T17:17:01.661Z,5.33
2018-08-30T17:19:31.086Z,5.67
2018-08-30T17:21:59.885Z,5.43
2018-08-30T17:24:28.776Z,4.97
2018-08-30T17:26:57.562Z,4.97
2018-08-30T17:29:26.385Z,4.80
2018-08-30T17:31:56.024Z,4.90
2018-08-30T17:34:24.925Z,5.47
2018-08-30T17:36:54.208Z,5.43
2018-08-30T17:39:23.121Z,4.37
2018-08-30T17:41:52.344Z,5.00
2018-08-30T17:44:21.303Z,4.30
2018-08-30T17:46:50.555Z,4.83
2018-08-30T17:49:22.267Z,3.73
2018-08-30T17:52:02.933Z,4.10
2018-08-30T17:57:26.444Z,4.50
2018-08-30T17:59:57.390Z,4.40
2018-08-30T18:02:26.485Z,3.97
2018-08-30T18:04:55.678Z,3.90
2018-08-30T18:07:24.642Z,4.33
2018-08-30T18:09:53.435Z,3.57
2018-08-30T18:12:22.312Z,4.33
2018-08-30T18:14:51.151Z,4.73
2018-08-30T18:17:20.024Z,4.70
2018-08-30T18:19:48.868Z,3.90
2018-08-30T18:22:18.184Z,4.30
2018-08-30T18:24:47.200Z,4.80
2018-08-30T18:27:16.441Z,4.27
2018-08-30T18:29:45.465Z,4.77
2018-08-30T18:32:17.286Z,4.60
2018-08-30T18:34:46.136Z,4.30
2018-08-30T18:37:15.384Z,4.27
2018-08-30T18:39:45.019Z,4.63
2018-08-30T18:42:18.219Z,4.23
2018-08-30T18:44:47.050Z,4.80
2018-08-30T18:47:16.285Z,4.60
2018-08-30T18:49:45.490Z,4.70
2018-08-30T18:52:14.680Z,5.03
2018-08-30T18:54:43.584Z,5.33
2018-08-30T18:57:12.809Z,5.30
2018-08-30T18:59:41.722Z,5.03
2018-08-30T19:02:10.915Z,5.50
2018-08-30T19:04:39.864Z,5.20
2018-08-30T19:07:08.700Z,5.30
2018-08-30T19:09:37.566Z,5.40
2018-08-30T19:12:06.885Z,5.43
2018-08-30T19:14:35.776Z,5.03
2018-08-30T19:17:10.164Z,5.20
2018-08-30T19:19:39.448Z,5.13
2018-08-30T19:22:09.758Z,5.40
2018-08-30T19:24:43.972Z,5.43
2018-08-30T19:27:12.795Z,5.30
2018-08-30T19:30:48.203Z,5.50
2018-08-30T19:33:17.070Z,5.83
2018-08-30T19:35:51.532Z,6.90
2018-08-30T19:38:20.421Z,5.90
2018-08-30T19:41:26.049Z,5.60
2018-08-30T19:43:54.975Z,7.00
2018-08-30T19:46:24.499Z,6.67
2018-08-30T19:48:53.372Z,7.40
2018-08-30T19:51:22.770Z,5.40
2018-08-30T19:53:52.034Z,6.80
2018-08-30T19:56:21.686Z,7.10
2018-08-30T19:58:50.646Z,6.60
2018-08-30T20:01:19.434Z,6.60
2018-08-30T20:03:49.225Z,7.43
2018-08-30T20:06:18.155Z,7.70
2018-08-30T20:08:46.986Z,8.50
2018-08-30T20:11:16.239Z,8.07
2018-08-30T20:13:45.177Z,8.50
2018-08-30T20:16:14.010Z,8.10
2018-08-30T20:18:42.832Z,7.77
2018-08-30T20:21:11.660Z,8.00
2018-08-30T20:23:40.476Z,6.80
2018-08-30T20:26:09.276Z,9.03
2018-08-30T20:28:38.141Z,8.70
2018-08-30T20:31:06.988Z,8.20
2018-08-30T20:33:35.775Z,9.33
2018-08-30T20:36:04.668Z,8.20
2018-08-30T20:38:33.763Z,9.50
2018-08-30T20:41:02.639Z,10.67
2018-08-30T20:43:31.753Z,11.23
2018-08-30T20:46:00.605Z,8.93
2018-08-30T21:02:15.758Z,11.20
2018-08-30T21:04:44.553Z,11.33
2018-08-30T21:07:13.314Z,10.80
2018-08-30T21:09:42.123Z,10.23
2018-08-30T21:12:10.889Z,10.87
2018-08-30T21:14:39.726Z,10.47
2018-08-30T21:17:08.523Z,10.30
2018-08-30T21:19:37.591Z,11.50
2018-08-30T21:22:06.699Z,12.03
2018-08-30T21:24:35.561Z,11.10
2018-08-30T21:27:04.428Z,10.60
2018-08-30T21:29:33.306Z,10.30
2018-08-30T21:32:02.511Z,11.33
2018-08-30T21:34:31.347Z,9.90
2018-08-30T21:37:00.190Z,10.57
2018-08-30T21:39:28.951Z,9.93
2018-08-30T21:41:57.746Z,10.30
2018-08-30T21:44:26.525Z,11.70
2018-08-30T21:46:55.595Z,11.13
2018-08-30T21:49:24.410Z,11.57
2018-08-30T21:51:53.370Z,11.30
2018-08-30T21:54:22.191Z,8.77
2018-08-30T21:56:50.943Z,9.87
2018-08-30T21:59:19.778Z,10.30
2018-08-30T22:01:48.598Z,10.23
2018-08-30T22:06:52.492Z,9.13
2018-08-30T22:09:21.274Z,10.30
2018-08-30T22:11:50.064Z,8.47
2018-08-30T22:14:18.926Z,8.90
2018-08-30T22:16:47.680Z,8.93
2018-08-30T22:19:16.495Z,7.80
2018-08-30T22:21:45.287Z,8.37
2018-08-30T22:24:14.149Z,7.93
2018-08-30T22:26:42.940Z,8.43
2018-08-30T22:29:11.750Z,7.17
2018-08-30T22:31:40.587Z,7.47
2018-08-30T22:34:09.335Z,8.03
2018-08-30T22:36:38.175Z,8.63
2018-08-30T22:39:06.998Z,8.00
2018-08-30T22:41:36.212Z,7.60
2018-08-30T22:44:05.032Z,7.93
2018-08-30T22:46:33.831Z,8.43
2018-08-30T22:49:03.055Z,8.70
2018-08-30T22:51:31.854Z,7.90
2018-08-30T22:54:00.647Z,7.83
2018-08-30T22:56:29.465Z,7.90
2018-08-30T22:58:58.249Z,7.87
2018-08-30T23:01:27.011Z,8.83
2018-08-30T23:03:55.828Z,8.77
2018-08-30T23:06:25.020Z,7.87
2018-08-30T23:08:53.909Z,9.00
2018-08-30T23:11:22.694Z,9.97
2018-08-30T23:13:51.468Z,8.67
2018-08-30T23:16:20.246Z,8.13
2018-08-30T23:18:49.045Z,7.47
2018-08-30T23:21:17.838Z,7.70
2018-08-30T23:23:46.638Z,8.13
2018-08-30T23:26:15.427Z,7.23
2018-08-30T23:28:44.208Z,7.13
2018-08-30T23:31:12.983Z,7.13
2018-08-30T23:33:41.786Z,7.23
2018-08-30T23:36:10.777Z,8.10
2018-08-30T23:38:39.545Z,8.03
2018-08-30T23:41:08.344Z,7.17
2018-08-30T23:43:37.108Z,9.37
2018-08-30T23:46:05.911Z,6.93
2018-08-30T23:48:34.692Z,6.40
2018-08-30T23:51:03.514Z,7.07
2018-08-30T23:53:32.299Z,6.90
2018-08-30T23:56:01.056Z,6.57
2018-08-30T23:58:35.479Z,6.93
